sim
Sign-in with your pilot id or email,
or register
Callsign
Passwort

Schedule Details

Flight Number: OEO2561
Departure: Oslo Gardermoen Airport (ENGM) at 16:15
Arrival: Munich Airport (EDDM) at 18:35

Weather Information
Getting current METAR information for ENGM 010820Z 09009KT 050V140 9999 OVC007 10/09 Q1016 TEMPO BKN012
Getting current METAR information for EDDM 010820Z 12003KT 060V190 3500 1300E R08L/1700U R08R/1700U BCFG FEW001 09/08 Q1008 BECMG 5000

Schedule Frequency

Route Map